createdAt,value
2019-02-26T00:00:01.438Z,4.3
2019-02-26T00:05:03.459Z,4.3
2019-02-26T00:10:04.058Z,4.3
2019-02-26T00:15:02.516Z,4.3
2019-02-26T00:20:01.784Z,4.4
2019-02-26T00:25:03.780Z,4.4
2019-02-26T00:30:01.657Z,4.3
2019-02-26T00:35:02.346Z,4.3
2019-02-26T00:40:01.505Z,4.3
2019-02-26T00:45:03.270Z,4.2
2019-02-26T00:50:01.741Z,4.2
2019-02-26T00:55:02.915Z,4.1
2019-02-26T01:00:03.320Z,4.1
2019-02-26T01:05:03.918Z,4.1
2019-02-26T01:10:01.963Z,4.1
2019-02-26T01:15:02.993Z,4.1
2019-02-26T01:20:03.948Z,4
2019-02-26T01:25:01.728Z,4
2019-02-26T01:30:03.401Z,4
2019-02-26T01:35:03.286Z,4
2019-02-26T01:40:01.689Z,4
2019-02-26T01:45:01.561Z,4
2019-02-26T01:50:04.058Z,4
2019-02-26T01:55:02.744Z,4
2019-02-26T02:00:01.735Z,4
2019-02-26T02:05:02.837Z,4
2019-02-26T02:10:03.143Z,4
2019-02-26T02:15:01.677Z,4
2019-02-26T02:20:03.667Z,4
2019-02-26T02:25:01.189Z,4
2019-02-26T02:30:02.059Z,4.1
2019-02-26T02:35:04.192Z,4.1
2019-02-26T02:40:01.162Z,4.1
2019-02-26T02:45:01.879Z,4.1
2019-02-26T02:50:03.052Z,4.1
2019-02-26T02:55:01.531Z,4.1
2019-02-26T03:00:02.851Z,4.1
2019-02-26T03:05:01.321Z,4
2019-02-26T03:10:04.461Z,3.9
2019-02-26T03:15:02.238Z,3.9
2019-02-26T03:20:04.821Z,3.9
2019-02-26T03:25:02.248Z,3.9
2019-02-26T03:30:02.070Z,4
2019-02-26T03:35:04.430Z,3.9
2019-02-26T03:40:03.511Z,4
2019-02-26T03:45:02.891Z,4
2019-02-26T03:50:02.045Z,4
2019-02-26T03:55:03.242Z,4
2019-02-26T04:00:05.450Z,4
2019-02-26T04:05:02.834Z,4.1
2019-02-26T04:10:01.775Z,4.1
2019-02-26T04:15:01.744Z,4.1
2019-02-26T04:20:02.534Z,4.1
2019-02-26T04:25:05.950Z,4
2019-02-26T04:30:01.817Z,4
2019-02-26T04:35:02.702Z,4
2019-02-26T04:40:04.850Z,4
2019-02-26T04:45:04.870Z,4
2019-02-26T04:50:03.666Z,3.9
2019-02-26T04:55:01.340Z,3.9
2019-02-26T05:00:04.480Z,3.8
2019-02-26T05:05:01.977Z,3.8
2019-02-26T05:10:02.113Z,3.8
2019-02-26T05:15:01.568Z,3.8
2019-02-26T05:20:04.164Z,3.8
2019-02-26T05:25:04.435Z,3.8
2019-02-26T05:30:02.467Z,3.9
2019-02-26T05:35:01.795Z,3.9
2019-02-26T05:40:01.315Z,3.9
2019-02-26T05:45:03.583Z,3.8
2019-02-26T05:50:02.474Z,3.8
2019-02-26T05:55:01.584Z,3.8
2019-02-26T06:00:02.250Z,3.8
2019-02-26T06:05:01.275Z,3.8
2019-02-26T06:10:02.417Z,3.8
2019-02-26T06:15:05.771Z,3.8
2019-02-26T06:20:02.552Z,3.8
2019-02-26T06:25:03.959Z,3.8
2019-02-26T06:30:04.045Z,3.8
2019-02-26T06:35:02.243Z,3.9
2019-02-26T06:40:03.064Z,3.9
2019-02-26T06:45:03.391Z,3.9
2019-02-26T06:50:02.888Z,3.9
2019-02-26T06:55:03.401Z,3.9
2019-02-26T07:00:04.000Z,4
2019-02-26T07:05:01.519Z,4
2019-02-26T07:10:01.870Z,3.9
2019-02-26T07:15:01.587Z,3.9
2019-02-26T07:20:03.135Z,4
2019-02-26T07:25:01.596Z,4.1
2019-02-26T07:30:01.728Z,4.3
2019-02-26T07:35:01.775Z,4.6
2019-02-26T07:40:03.686Z,4.7
2019-02-26T07:45:02.242Z,5
2019-02-26T07:50:04.562Z,5.4
2019-02-26T07:55:03.558Z,5.8
2019-02-26T08:00:01.797Z,6
2019-02-26T08:05:01.954Z,6.6
2019-02-26T08:10:01.243Z,6.9
2019-02-26T08:15:02.899Z,7.3
2019-02-26T08:20:02.189Z,7.7
2019-02-26T08:25:01.353Z,7.8
2019-02-26T08:30:01.686Z,8
2019-02-26T08:35:01.729Z,8.4
2019-02-26T08:40:02.131Z,8.6
2019-02-26T08:45:01.250Z,8.9
2019-02-26T08:50:03.967Z,9.3
2019-02-26T08:55:01.778Z,9.5
2019-02-26T09:00:02.031Z,9.8
2019-02-26T09:05:04.434Z,10.2
2019-02-26T09:10:01.877Z,10.5
2019-02-26T09:15:01.769Z,10.8
2019-02-26T09:20:09.112Z,11.3
2019-02-26T09:25:02.541Z,11.7
2019-02-26T09:30:03.264Z,11.9
2019-02-26T09:35:04.704Z,12.1
2019-02-26T09:40:04.792Z,12.3
2019-02-26T09:45:01.447Z,12.4
2019-02-26T09:50:02.005Z,12.7
2019-02-26T09:55:01.524Z,13
2019-02-26T10:00:03.217Z,13
2019-02-26T10:05:01.822Z,13.3
2019-02-26T10:10:03.926Z,13.7
2019-02-26T10:15:02.289Z,14
2019-02-26T10:20:04.407Z,14.1
2019-02-26T10:25:01.925Z,14.3
2019-02-26T10:30:05.018Z,14.5
2019-02-26T10:35:02.093Z,14.5
2019-02-26T10:40:01.260Z,14.7
2019-02-26T10:45:01.693Z,14.9
2019-02-26T10:50:02.001Z,14.9
2019-02-26T10:55:01.849Z,14.8
2019-02-26T11:00:02.331Z,14.8
2019-02-26T11:05:01.879Z,14.8
2019-02-26T11:10:01.591Z,15
2019-02-26T11:15:04.316Z,15
2019-02-26T11:20:04.324Z,15.1
2019-02-26T11:25:02.102Z,15.7
2019-02-26T11:30:02.058Z,15.8
2019-02-26T11:35:02.325Z,15.9
2019-02-26T11:40:03.369Z,15.9
2019-02-26T11:45:01.610Z,16.2
2019-02-26T11:50:04.097Z,16.4
2019-02-26T11:55:05.359Z,16.5
2019-02-26T12:00:02.289Z,16.8
2019-02-26T12:05:02.835Z,16.8
2019-02-26T12:10:09.247Z,16.9
2019-02-26T12:15:04.170Z,17
2019-02-26T12:20:02.116Z,17.4
2019-02-26T12:25:04.421Z,17.4
2019-02-26T12:30:01.553Z,17.3
2019-02-26T12:35:03.354Z,17.2
2019-02-26T12:40:01.469Z,17.3
2019-02-26T12:45:04.775Z,17.4
2019-02-26T12:50:02.771Z,17.4
2019-02-26T12:55:04.114Z,17.3
2019-02-26T13:00:02.036Z,17.5
2019-02-26T13:05:01.565Z,17.6
2019-02-26T13:10:03.658Z,17.5
2019-02-26T13:15:04.816Z,17.8
2019-02-26T13:20:04.879Z,17.7
2019-02-26T13:25:03.551Z,17.9
2019-02-26T13:30:01.416Z,18
2019-02-26T13:35:07.003Z,18
2019-02-26T13:40:01.620Z,18.2
2019-02-26T13:45:01.714Z,18.2
2019-02-26T13:50:01.717Z,18.1
2019-02-26T13:55:01.738Z,18.4
2019-02-26T14:00:01.917Z,18.7
2019-02-26T14:05:01.723Z,18.6
2019-02-26T14:10:02.043Z,18.5
2019-02-26T14:15:03.720Z,18.6
2019-02-26T14:20:02.345Z,18.6
2019-02-26T14:25:01.459Z,18.5
2019-02-26T14:30:02.524Z,18.2
2019-02-26T14:35:02.019Z,18.1
2019-02-26T14:40:02.130Z,17.9
2019-02-26T14:45:01.990Z,17.8
2019-02-26T14:50:02.179Z,18
2019-02-26T14:55:01.336Z,17.9
2019-02-26T15:00:01.769Z,17.8
2019-02-26T15:05:02.232Z,17.6
2019-02-26T15:10:02.167Z,17.5
2019-02-26T15:15:02.143Z,17.4
2019-02-26T15:20:02.093Z,17.3
2019-02-26T15:25:02.178Z,17.2
2019-02-26T15:30:01.597Z,17.2
2019-02-26T15:35:01.523Z,17
2019-02-26T15:40:02.150Z,16.9
2019-02-26T15:45:02.046Z,16.7
2019-02-26T15:50:01.404Z,16.3
2019-02-26T15:55:01.412Z,16.1
2019-02-26T16:00:01.818Z,15.9
2019-02-26T16:05:01.873Z,15.8
2019-02-26T16:10:01.867Z,15.6
2019-02-26T16:15:01.558Z,15.5
2019-02-26T16:20:02.285Z,15.3
2019-02-26T16:25:01.818Z,15.2
2019-02-26T16:30:02.038Z,15
2019-02-26T16:35:02.320Z,14.8
2019-02-26T16:40:01.520Z,14.5
2019-02-26T16:45:02.220Z,14.3
2019-02-26T16:50:11.701Z,14
2019-02-26T16:55:02.011Z,13.7
2019-02-26T17:00:01.369Z,13.5
2019-02-26T17:05:02.027Z,13.3
2019-02-26T17:10:02.140Z,13
2019-02-26T17:15:01.242Z,12.8
2019-02-26T17:20:02.322Z,12.6
2019-02-26T17:25:01.682Z,12.3
2019-02-26T17:30:01.872Z,12.2
2019-02-26T17:35:01.353Z,11.9
2019-02-26T17:40:03.158Z,11.6
2019-02-26T17:45:01.802Z,11.4
2019-02-26T17:50:01.196Z,11.3
2019-02-26T17:55:01.540Z,11.1
2019-02-26T18:00:01.946Z,11
2019-02-26T18:05:02.137Z,10.8
2019-02-26T18:10:01.802Z,10.6
2019-02-26T18:15:01.645Z,10.4
2019-02-26T18:20:01.787Z,10.3
2019-02-26T18:25:01.845Z,10.2
2019-02-26T18:30:02.291Z,10.1
2019-02-26T18:35:01.532Z,10
2019-02-26T18:40:01.802Z,9.8
2019-02-26T18:45:01.681Z,9.6
2019-02-26T18:50:02.269Z,9.5
2019-02-26T18:55:01.398Z,9.3
2019-02-26T19:00:02.391Z,9.2
2019-02-26T19:05:01.470Z,9.1
2019-02-26T19:10:02.253Z,9
2019-02-26T19:15:01.495Z,8.9
2019-02-26T19:20:02.091Z,8.9
2019-02-26T19:25:02.074Z,8.8
2019-02-26T19:30:03.787Z,8.8
2019-02-26T19:35:02.003Z,8.7
2019-02-26T19:40:05.661Z,8.7
2019-02-26T19:45:01.358Z,8.5
2019-02-26T19:50:01.236Z,8.4
2019-02-26T19:55:01.246Z,8.3
2019-02-26T20:00:01.914Z,8.2
2019-02-26T20:05:01.968Z,8.2
2019-02-26T20:10:01.636Z,8.1
2019-02-26T20:15:02.191Z,8
2019-02-26T20:20:04.867Z,7.9
2019-02-26T20:25:01.158Z,7.7
2019-02-26T20:30:01.489Z,7.5
2019-02-26T20:35:02.532Z,7.4
2019-02-26T20:40:01.727Z,7.3
2019-02-26T20:45:01.523Z,7.1
2019-02-26T20:50:02.485Z,7
2019-02-26T20:55:01.609Z,6.9
2019-02-26T21:00:01.896Z,6.8
2019-02-26T21:05:01.863Z,6.7
2019-02-26T21:10:03.888Z,6.5
2019-02-26T21:15:01.834Z,6.3
2019-02-26T21:20:01.277Z,6.2
2019-02-26T21:25:01.619Z,6.1
2019-02-26T21:30:02.049Z,6
2019-02-26T21:35:01.918Z,5.9
2019-02-26T21:40:02.315Z,5.8
2019-02-26T21:45:01.286Z,5.6
2019-02-26T21:50:02.030Z,5.6
2019-02-26T21:55:02.251Z,5.6
2019-02-26T22:00:05.050Z,5.4
2019-02-26T22:05:04.963Z,5.4
2019-02-26T22:10:01.250Z,5.3
2019-02-26T22:15:01.721Z,5.2
2019-02-26T22:20:01.242Z,5.1
2019-02-26T22:25:09.042Z,5.1
2019-02-26T22:30:02.038Z,5
2019-02-26T22:35:02.020Z,5
2019-02-26T22:40:01.375Z,4.9
2019-02-26T22:45:01.814Z,4.9
2019-02-26T22:50:03.185Z,4.8
2019-02-26T22:55:01.816Z,4.8
2019-02-26T23:00:02.802Z,4.7
2019-02-26T23:05:02.106Z,4.6
2019-02-26T23:10:01.265Z,4.6
2019-02-26T23:15:01.482Z,4.5
2019-02-26T23:20:02.197Z,4.4
2019-02-26T23:25:01.995Z,4.3
2019-02-26T23:30:01.861Z,4.2
2019-02-26T23:35:01.245Z,4.1
2019-02-26T23:40:01.513Z,4
2019-02-26T23:45:01.916Z,3.9
2019-02-26T23:50:01.919Z,3.9
2019-02-26T23:55:02.459Z,3.9
